Time;durP1;ratioP1;P1;durP2;ratioP2;P2;SDS_P1;SDS_P2;PMS_P1;PMS_P2;Temp;Humidity;BMP_temperature;BMP_pressure;BME280_temperature;BME280_humidity;BME280_pressure;Samples;Min_cycle;Max_cycle;Signal;HPM_P1;HPM_P2
2022/07/29 00:01:33;;;;;;;4.25;1.45;;;19.00;80.70;;;;;;5003906;28;20112;-58
2022/07/29 00:03:59;;;;;;;3.58;1.48;;;18.90;81.00;;;;;;5007762;28;20030;-56
2022/07/29 00:06:24;;;;;;;7.28;1.80;;;18.90;81.10;;;;;;5009920;28;20036;-60
2022/07/29 00:08:50;;;;;;;10.63;1.42;;;18.90;81.40;;;;;;5004707;28;20034;-57
2022/07/29 00:11:16;;;;;;;10.15;1.70;;;18.90;81.50;;;;;;5003151;28;20101;-59
2022/07/29 00:13:41;;;;;;;5.78;1.40;;;18.80;81.70;;;;;;5002676;28;20030;-59
2022/07/29 00:16:07;;;;;;;7.65;1.73;;;18.70;82.30;;;;;;5000069;28;20030;-61
2022/07/29 00:18:33;;;;;;;5.68;1.50;;;18.70;82.80;;;;;;5006499;28;20060;-60
2022/07/29 00:20:58;;;;;;;3.75;1.83;;;18.70;81.90;;;;;;4999750;28;20795;-60
2022/07/29 00:23:24;;;;;;;5.50;1.50;;;18.80;81.10;;;;;;5005785;28;20037;-55
2022/07/29 00:25:50;;;;;;;3.42;1.23;;;18.80;80.60;;;;;;4991927;28;20026;-56
2022/07/29 00:28:15;;;;;;;4.60;1.52;;;18.90;80.80;;;;;;5000216;28;20046;-56
2022/07/29 00:30:42;;;;;;;3.30;1.38;;;18.90;81.00;;;;;;5000682;28;20036;-56
2022/07/29 00:33:08;;;;;;;3.53;1.40;;;18.90;81.70;;;;;;4984193;28;20078;-58
2022/07/29 00:35:43;;;;;;;3.78;1.40;;;18.80;81.60;;;;;;4999798;28;20042;-55
2022/07/29 00:38:13;;;;;;;6.70;1.67;;;18.80;82.40;;;;;;5002738;28;20023;-55
2022/07/29 00:40:39;;;;;;;3.95;1.30;;;18.80;82.90;;;;;;5003152;28;20027;-58
2022/07/29 00:43:05;;;;;;;6.28;1.58;;;18.70;83.60;;;;;;5001377;28;20026;-55
2022/07/29 00:45:31;;;;;;;4.05;1.77;;;18.70;81.90;;;;;;5001880;28;20112;-58
2022/07/29 00:47:57;;;;;;;8.30;2.08;;;18.80;82.80;;;;;;5003669;28;20180;-57
2022/07/29 00:50:22;;;;;;;8.10;1.77;;;18.80;82.00;;;;;;5004147;28;20034;-55
2022/07/29 00:52:49;;;;;;;3.33;1.27;;;18.80;80.30;;;;;;5005672;28;20025;-57
2022/07/29 00:55:15;;;;;;;5.57;1.60;;;18.90;79.90;;;;;;5002408;28;20022;-58
2022/07/29 00:57:43;;;;;;;4.55;1.25;;;18.90;80.00;;;;;;5006508;28;20105;-56
2022/07/29 01:00:12;;;;;;;8.32;1.58;;;18.90;79.60;;;;;;5003450;28;20029;-58
2022/07/29 01:02:37;;;;;;;5.05;1.92;;;18.90;80.00;;;;;;5005026;28;20033;-57
2022/07/29 01:05:05;;;;;;;6.10;1.67;;;18.80;79.60;;;;;;5000368;28;20427;-59
2022/07/29 01:07:33;;;;;;;7.65;2.03;;;18.70;80.20;;;;;;5002894;28;20033;-58
2022/07/29 01:09:59;;;;;;;10.75;2.17;;;18.70;80.00;;;;;;5006387;28;20403;-58
2022/07/29 01:12:27;;;;;;;4.90;1.40;;;18.70;79.90;;;;;;5005992;28;20034;-58
2022/07/29 01:14:55;;;;;;;3.90;1.73;;;18.70;79.90;;;;;;5003816;28;20096;-57
2022/07/29 01:17:25;;;;;;;4.20;1.60;;;18.70;80.70;;;;;;5000055;28;20550;-57
2022/07/29 01:20:09;;;;;;;5.55;1.30;;;18.70;79.70;;;;;;5000901;28;20105;-56
2022/07/29 01:22:53;;;;;;;3.60;1.42;;;18.60;79.50;;;;;;5006690;28;20030;-53
2022/07/29 01:25:37;;;;;;;;;;;18.60;80.00;;;;;;5004863;28;20024;-58
2022/07/29 01:28:30;;;;;;;5.88;1.80;;;18.60;79.90;;;;;;4996916;28;19971;-58
2022/07/29 01:30:57;;;;;;;11.48;1.25;;;18.60;79.60;;;;;;5004696;28;20038;-55
2022/07/29 01:36:16;;;;;;;7.65;1.67;;;18.60;80.60;;;;;;5000330;28;20384;-57
2022/07/29 01:38:44;;;;;;;6.07;1.30;;;18.50;80.20;;;;;;4984129;28;20551;-58
2022/07/29 01:41:14;;;;;;;8.52;1.58;;;18.60;79.60;;;;;;5004187;28;20141;-59
2022/07/29 01:44:02;;;;;;;4.80;1.45;;;18.60;78.90;;;;;;5000394;28;20023;-58
2022/07/29 01:46:34;;;;;;;3.50;1.48;;;18.70;78.70;;;;;;5001812;28;20037;-57
2022/07/29 01:49:11;;;;;;;7.05;1.83;;;18.70;78.30;;;;;;4997604;28;20349;-56
2022/07/29 01:51:49;;;;;;;5.50;1.50;;;18.70;77.90;;;;;;5010012;28;20857;-54
2022/07/29 01:54:42;;;;;;;5.35;2.53;;;18.70;77.60;;;;;;5000300;28;20376;-54
2022/07/29 01:57:10;;;;;;;7.87;1.60;;;18.70;77.20;;;;;;5007624;28;20479;-48
2022/07/29 01:59:38;;;;;;;4.43;1.48;;;18.70;77.20;;;;;;4991368;28;20030;-58
2022/07/29 02:02:08;;;;;;;7.38;1.80;;;18.80;77.00;;;;;;5000745;28;20114;-58
2022/07/29 02:04:36;;;;;;;7.43;1.50;;;18.80;76.60;;;;;;4985904;28;20034;-56
2022/07/29 02:07:05;;;;;;;6.32;1.73;;;18.80;76.80;;;;;;5002435;28;20431;-58
2022/07/29 02:09:34;;;;;;;3.58;1.63;;;18.80;76.70;;;;;;5007233;28;20033;-55
2022/07/29 02:12:02;;;;;;;3.33;1.20;;;18.80;76.80;;;;;;4995931;28;20026;-55
2022/07/29 02:14:35;;;;;;;6.13;1.40;;;18.80;76.70;;;;;;5008193;28;20399;-55
2022/07/29 02:17:02;;;;;;;4.60;1.48;;;18.80;76.90;;;;;;5010190;28;20022;-57
2022/07/29 02:19:30;;;;;;;6.75;1.40;;;18.70;76.80;;;;;;5013423;28;20472;-57
2022/07/29 02:21:58;;;;;;;6.28;1.40;;;18.70;77.30;;;;;;5005267;28;20033;-56
2022/07/29 02:24:25;;;;;;;8.30;1.90;;;18.60;77.90;;;;;;5011288;28;20076;-56
2022/07/29 02:26:54;;;;;;;6.90;1.70;;;18.50;78.00;;;;;;5011531;28;20054;-55
2022/07/29 02:29:26;;;;;;;6.57;1.70;;;18.60;78.20;;;;;;4990766;28;20097;-55
2022/07/29 02:31:53;;;;;;;7.50;1.77;;;18.60;78.10;;;;;;4999867;28;20128;-59
2022/07/29 02:34:20;;;;;;;5.55;1.88;;;18.60;78.10;;;;;;4999411;28;20042;-57
2022/07/29 02:36:47;;;;;;;4.45;1.35;;;18.60;77.90;;;;;;4998655;28;20026;-56
2022/07/29 02:39:15;;;;;;;5.68;1.70;;;18.60;77.70;;;;;;5004619;28;20380;-57
2022/07/29 02:41:46;;;;;;;5.72;1.73;;;18.60;77.50;;;;;;5006534;28;20382;-57
2022/07/29 02:44:16;;;;;;;3.63;1.60;;;18.50;78.00;;;;;;5005683;28;20109;-57
2022/07/29 02:47:11;;;;;;;6.57;1.38;;;18.40;78.30;;;;;;5008145;28;20038;-54
2022/07/29 02:49:52;;;;;;;5.10;1.73;;;18.40;77.70;;;;;;5000266;28;20107;-56
2022/07/29 02:52:32;;;;;;;9.80;1.80;;;18.40;77.00;;;;;;5006774;28;20034;-60
2022/07/29 02:55:24;;;;;;;4.03;1.50;;;18.40;77.40;;;;;;5001980;28;20053;-58
2022/07/29 02:58:02;;;;;;;6.60;1.35;;;18.40;77.40;;;;;;4998142;28;20026;-56
2022/07/29 03:00:30;;;;;;;17.13;2.03;;;18.40;77.10;;;;;;5008320;28;20049;-58
2022/07/29 03:02:59;;;;;;;7.40;2.08;;;18.40;76.90;;;;;;4992394;28;20018;-57
2022/07/29 03:05:26;;;;;;;3.53;1.70;;;18.50;76.80;;;;;;4987597;28;20022;-54
2022/07/29 03:07:58;;;;;;;6.82;1.80;;;18.50;76.50;;;;;;4986170;28;20025;-58
2022/07/29 03:10:26;;;;;;;3.33;1.42;;;18.50;76.60;;;;;;4967971;28;20037;-58
2022/07/29 03:12:53;;;;;;;6.38;1.92;;;18.50;76.20;;;;;;4974288;28;20033;-58
2022/07/29 03:15:20;;;;;;;2.90;1.25;;;18.50;76.80;;;;;;5015231;28;20072;-59
2022/07/29 03:17:46;;;;;;;4.53;1.52;;;18.50;76.30;;;;;;4995315;28;20034;-61
2022/07/29 03:20:13;;;;;;;6.20;1.75;;;18.50;76.80;;;;;;5019681;28;20025;-61
2022/07/29 03:22:43;;;;;;;10.30;1.52;;;18.40;76.50;;;;;;4993713;28;20427;-57
2022/07/29 03:25:10;;;;;;;7.93;1.42;;;18.40;77.30;;;;;;4982264;28;20046;-54
2022/07/29 03:27:35;;;;;;;10.23;2.92;;;18.30;76.90;;;;;;5001235;28;20052;-55
2022/07/29 03:30:01;;;;;;;4.15;1.60;;;18.30;77.60;;;;;;5011302;28;20029;-54
2022/07/29 03:32:27;;;;;;;4.50;1.88;;;18.20;79.60;;;;;;5006765;28;20377;-59
2022/07/29 03:34:52;;;;;;;9.90;2.53;;;18.20;79.10;;;;;;4982373;28;20722;-58
2022/07/29 03:37:18;;;;;;;6.15;1.70;;;18.10;79.20;;;;;;5010089;28;20384;-59
2022/07/29 03:39:45;;;;;;;7.05;1.52;;;18.10;80.70;;;;;;5014634;28;20034;-57
2022/07/29 03:42:15;;;;;;;3.83;1.25;;;18.00;82.80;;;;;;4991683;28;20026;-60
2022/07/29 03:44:43;;;;;;;8.68;1.60;;;17.90;81.50;;;;;;5005893;28;20411;-56
2022/07/29 03:47:10;;;;;;;4.82;1.33;;;17.90;80.80;;;;;;4994148;28;20026;-48
2022/07/29 03:49:38;;;;;;;11.93;1.83;;;17.90;81.50;;;;;;4991545;28;20407;-59
2022/07/29 03:52:05;;;;;;;5.40;2.15;;;17.80;82.00;;;;;;4977462;28;20117;-59
2022/07/29 03:54:31;;;;;;;4.82;1.50;;;17.80;82.60;;;;;;5006090;28;20034;-51
2022/07/29 03:57:00;;;;;;;6.90;1.65;;;17.80;83.50;;;;;;4993582;28;20032;-58
2022/07/29 03:59:27;;;;;;;3.90;1.40;;;17.80;84.20;;;;;;5024622;23;21168;-53
2022/07/29 04:01:54;;;;;;;4.40;1.30;;;17.80;83.70;;;;;;4951763;28;20429;-58
2022/07/29 04:04:20;;;;;;;2.90;1.60;;;17.70;83.00;;;;;;4972119;28;20054;-55
2022/07/29 04:06:46;;;;;;;5.70;1.52;;;17.80;82.60;;;;;;4977714;28;20062;-56
2022/07/29 04:09:12;;;;;;;7.63;2.55;;;17.80;81.80;;;;;;4972419;28;20031;-54
2022/07/29 04:11:41;;;;;;;6.68;1.67;;;17.80;81.30;;;;;;4971404;28;20085;-55
2022/07/29 04:14:07;;;;;;;5.70;1.52;;;17.80;81.60;;;;;;4971409;28;20026;-53
2022/07/29 04:16:33;;;;;;;9.43;1.60;;;17.80;83.30;;;;;;4970891;28;20027;-55
2022/07/29 04:18:59;;;;;;;6.88;2.03;;;17.80;83.10;;;;;;4972280;28;20380;-57
2022/07/29 04:21:25;;;;;;;8.18;1.52;;;17.80;82.10;;;;;;4972608;28;20022;-56
2022/07/29 04:23:50;;;;;;;5.65;1.55;;;17.90;81.90;;;;;;4972102;28;20023;-53
2022/07/29 04:26:17;;;;;;;5.68;1.70;;;18.00;81.70;;;;;;4971523;28;20070;-54
2022/07/29 04:28:43;;;;;;;6.47;1.50;;;18.10;81.50;;;;;;4972224;28;20035;-56
2022/07/29 04:31:09;;;;;;;4.57;1.90;;;18.10;82.30;;;;;;4970290;28;20034;-49
2022/07/29 04:33:35;;;;;;;10.07;1.70;;;18.20;80.90;;;;;;4971892;28;20030;-57
2022/07/29 04:36:00;;;;;;;6.05;2.05;;;18.20;82.10;;;;;;4971186;28;20097;-56
2022/07/29 04:38:26;;;;;;;8.23;1.95;;;18.20;82.20;;;;;;4971581;28;20404;-53
2022/07/29 04:40:51;;;;;;;4.20;2.20;;;18.20;82.00;;;;;;4971192;28;20022;-53
2022/07/29 04:43:17;;;;;;;6.47;1.48;;;18.20;82.60;;;;;;4971916;28;20031;-57
2022/07/29 04:45:43;;;;;;;11.25;2.58;;;18.20;82.80;;;;;;4953378;28;20100;-55
2022/07/29 04:48:09;;;;;;;6.35;1.60;;;18.20;83.30;;;;;;4970930;28;20026;-56
2022/07/29 04:50:37;;;;;;;6.72;1.60;;;18.30;83.50;;;;;;4971408;28;20027;-57
2022/07/29 04:53:03;;;;;;;9.48;1.55;;;18.30;85.50;;;;;;4971928;28;20061;-56
2022/07/29 04:55:28;;;;;;;12.75;1.40;;;18.30;85.00;;;;;;4970120;28;20042;-57
2022/07/29 04:57:54;;;;;;;6.10;2.08;;;18.40;84.00;;;;;;4970774;28;20027;-56
2022/07/29 05:00:20;;;;;;;3.25;1.50;;;18.50;83.30;;;;;;4970855;28;20030;-53
2022/07/29 05:02:45;;;;;;;2.97;1.33;;;18.60;82.70;;;;;;4971185;28;20433;-55
2022/07/29 05:05:11;;;;;;;7.10;1.90;;;18.90;82.50;;;;;;4969591;28;20023;-52
2022/07/29 05:07:36;;;;;;;8.30;1.80;;;19.00;81.10;;;;;;4970568;28;20085;-57
2022/07/29 05:10:02;;;;;;;6.70;1.60;;;19.20;81.80;;;;;;4971437;28;20065;-55
2022/07/29 05:12:28;;;;;;;6.00;1.55;;;19.90;81.50;;;;;;4970465;28;20118;-57
2022/07/29 05:14:54;;;;;;;5.55;1.90;;;21.50;75.60;;;;;;4971487;28;20098;-55
2022/07/29 05:17:20;;;;;;;6.15;1.67;;;22.60;71.80;;;;;;4970831;28;20517;-57
2022/07/29 05:19:45;;;;;;;3.08;1.17;;;23.50;70.30;;;;;;4971357;28;20069;-58
2022/07/29 05:22:11;;;;;;;4.38;1.30;;;24.40;67.60;;;;;;4969658;28;20050;-54
2022/07/29 05:24:37;;;;;;;3.88;1.48;;;25.60;65.00;;;;;;4970989;28;20392;-56
2022/07/29 05:27:02;;;;;;;2.13;1.20;;;26.30;63.90;;;;;;4970572;28;20038;-56
2022/07/29 05:29:28;;;;;;;4.53;1.13;;;26.90;62.60;;;;;;4970768;28;20184;-56
2022/07/29 05:31:54;;;;;;;9.73;1.67;;;27.40;61.40;;;;;;4969762;28;20081;-56
2022/07/29 05:34:19;;;;;;;5.00;1.35;;;26.80;61.90;;;;;;4971037;28;20030;-56
2022/07/29 05:36:45;;;;;;;4.65;1.60;;;25.60;63.80;;;;;;4970835;28;20033;-57
2022/07/29 05:39:12;;;;;;;7.45;1.58;;;24.90;65.00;;;;;;4970931;28;20023;-50
2022/07/29 05:41:38;;;;;;;4.57;1.50;;;24.10;67.60;;;;;;4969879;28;20027;-56
2022/07/29 05:44:04;;;;;;;4.22;1.48;;;23.80;69.00;;;;;;4971115;28;20026;-55
2022/07/29 05:46:30;;;;;;;6.40;1.70;;;23.40;70.10;;;;;;4969465;28;20469;-56
2022/07/29 05:48:56;;;;;;;8.57;1.58;;;23.20;69.90;;;;;;4970990;28;20030;-57
2022/07/29 05:51:21;;;;;;;7.15;1.88;;;23.40;69.60;;;;;;4969837;28;20074;-58
2022/07/29 05:53:47;;;;;;;5.10;1.30;;;23.90;69.50;;;;;;4970961;28;20425;-55
2022/07/29 05:56:12;;;;;;;4.90;1.75;;;25.10;69.00;;;;;;4968620;28;20055;-57
2022/07/29 05:58:38;;;;;;;4.65;1.42;;;26.30;64.40;;;;;;4970294;28;20035;-58
2022/07/29 06:01:04;;;;;;;4.13;1.40;;;27.50;62.10;;;;;;4970227;28;20113;-58
2022/07/29 06:03:30;;;;;;;3.72;1.40;;;28.00;59.80;;;;;;4969053;28;20090;-58
2022/07/29 06:05:55;;;;;;;7.20;1.52;;;28.60;59.50;;;;;;4970460;28;20019;-55
2022/07/29 06:08:21;;;;;;;3.15;1.30;;;29.20;58.60;;;;;;4968996;28;20113;-55
2022/07/29 06:10:47;;;;;;;7.55;1.58;;;28.90;59.40;;;;;;4969968;28;20465;-56
2022/07/29 06:13:15;;;;;;;5.75;1.85;;;28.40;59.30;;;;;;4942526;28;20047;-59
2022/07/29 06:15:41;;;;;;;9.90;1.92;;;27.70;59.90;;;;;;4968697;28;20035;-59
2022/07/29 06:18:09;;;;;;;4.55;1.85;;;27.10;61.30;;;;;;4969722;28;20027;-55
2022/07/29 06:20:35;;;;;;;8.32;1.52;;;26.60;62.30;;;;;;4936311;28;20038;-56
2022/07/29 06:23:01;;;;;;;5.43;2.00;;;25.80;63.40;;;;;;4969414;28;20023;-58
2022/07/29 06:25:30;;;;;;;4.13;1.77;;;25.00;65.10;;;;;;4969551;28;20023;-56
2022/07/29 06:27:56;;;;;;;8.40;2.03;;;25.30;65.60;;;;;;4969389;28;20558;-57
2022/07/29 06:30:21;;;;;;;10.48;2.33;;;26.00;64.00;;;;;;4969091;28;20019;-58
2022/07/29 06:32:47;;;;;;;3.08;1.65;;;26.10;62.70;;;;;;4969831;28;20046;-58
2022/07/29 06:35:13;;;;;;;7.07;1.65;;;25.60;63.90;;;;;;4968316;28;20050;-58
2022/07/29 06:37:39;;;;;;;8.13;1.92;;;24.70;65.40;;;;;;4968732;28;20092;-58
2022/07/29 06:42:49;;;;;;;7.07;1.80;;;24.40;68.30;;;;;;4966448;28;20054;-57
2022/07/29 06:45:15;;;;;;;3.92;1.67;;;25.50;65.20;;;;;;4970276;28;20027;-57
2022/07/29 06:47:41;;;;;;;7.80;1.75;;;27.00;63.00;;;;;;4972270;28;20420;-50
2022/07/29 06:50:11;;;;;;;6.88;1.38;;;28.00;60.90;;;;;;4974214;28;20031;-58
2022/07/29 06:52:37;;;;;;;8.63;1.65;;;29.70;59.20;;;;;;4968898;28;20030;-56
2022/07/29 06:55:03;;;;;;;5.22;1.58;;;30.90;57.00;;;;;;4973881;28;20027;-56
2022/07/29 06:57:28;;;;;;;8.63;1.50;;;31.10;56.70;;;;;;4971908;28;20491;-54
2022/07/29 06:59:56;;;;;;;9.55;1.65;;;31.80;55.20;;;;;;4970505;28;20033;-56
2022/07/29 07:02:22;;;;;;;5.90;1.38;;;32.30;53.30;;;;;;4970192;28;20018;-59
2022/07/29 07:04:48;;;;;;;10.57;1.90;;;32.40;55.00;;;;;;4971895;28;20444;-59
2022/07/29 07:07:13;;;;;;;7.28;2.47;;;33.20;52.50;;;;;;4972050;28;20479;-57
2022/07/29 07:09:39;;;;;;;5.10;1.52;;;33.20;52.00;;;;;;4972796;28;20031;-57
2022/07/29 07:12:05;;;;;;;4.38;1.58;;;33.90;51.70;;;;;;4954469;28;20611;-59
2022/07/29 07:14:31;;;;;;;3.67;1.75;;;33.20;52.50;;;;;;4971865;28;20516;-54
2022/07/29 07:16:57;;;;;;;9.48;2.60;;;32.70;50.90;;;;;;4971831;28;20051;-59
2022/07/29 07:19:22;;;;;;;8.20;1.75;;;31.50;52.00;;;;;;4971783;28;20069;-58
2022/07/29 07:21:48;;;;;;;6.07;1.40;;;29.90;54.50;;;;;;4971094;28;20114;-57
2022/07/29 07:24:14;;;;;;;9.75;1.83;;;29.40;55.70;;;;;;4952643;28;20027;-58
2022/07/29 07:26:39;;;;;;;6.72;1.50;;;28.60;55.50;;;;;;4972390;28;20038;-53
2022/07/29 07:29:05;;;;;;;4.13;1.55;;;27.80;57.30;;;;;;4971636;28;20022;-56
2022/07/29 07:31:31;;;;;;;8.35;1.70;;;27.40;58.20;;;;;;4972500;28;20166;-57
2022/07/29 07:33:57;;;;;;;6.78;1.50;;;26.90;59.00;;;;;;4971660;28;20034;-53
2022/07/29 07:36:23;;;;;;;7.10;1.58;;;26.50;60.70;;;;;;4972383;28;20031;-56
2022/07/29 07:38:49;;;;;;;4.30;1.40;;;26.30;61.50;;;;;;4969656;28;20018;-57
2022/07/29 07:41:15;;;;;;;7.57;1.50;;;26.40;60.40;;;;;;4969597;28;20034;-57
2022/07/29 07:43:40;;;;;;;6.32;1.73;;;26.80;59.80;;;;;;4969044;28;20019;-56
2022/07/29 07:46:06;;;;;;;3.67;1.73;;;27.10;60.80;;;;;;4971498;28;20448;-57
2022/07/29 07:48:34;;;;;;;3.83;1.50;;;27.30;60.30;;;;;;4970091;28;20487;-57
2022/07/29 07:51:00;;;;;;;4.10;1.88;;;27.50;59.80;;;;;;4971753;28;20034;-57
2022/07/29 07:53:26;;;;;;;3.17;1.63;;;28.00;60.00;;;;;;4969925;28;20022;-58
2022/07/29 07:55:51;;;;;;;6.55;2.30;;;28.40;58.50;;;;;;4967330;28;20027;-58
2022/07/29 07:58:17;;;;;;;5.50;2.08;;;28.00;58.40;;;;;;4970999;28;20018;-56
2022/07/29 08:00:43;;;;;;;7.82;1.40;;;28.20;58.20;;;;;;4972140;28;20547;-58
2022/07/29 08:03:12;;;;;;;6.22;1.40;;;28.90;58.10;;;;;;4970554;28;20023;-57
2022/07/29 08:05:38;;;;;;;3.38;1.25;;;30.10;57.90;;;;;;4951533;28;20061;-58
2022/07/29 08:08:04;;;;;;;4.05;1.65;;;30.90;54.90;;;;;;4971136;28;20027;-60
2022/07/29 08:13:14;;;;;;;5.70;1.60;;;30.20;55.80;;;;;;4969801;28;20122;-58
2022/07/29 08:15:41;;;;;;;8.77;1.77;;;29.20;56.20;;;;;;4954676;28;20101;-59
2022/07/29 08:18:06;;;;;;;9.50;2.00;;;28.90;57.00;;;;;;4969605;28;20030;-55
2022/07/29 08:20:35;;;;;;;11.65;1.40;;;28.60;56.40;;;;;;4971418;28;20073;-58
2022/07/29 08:23:01;;;;;;;11.95;2.00;;;28.20;56.70;;;;;;4970162;28;20027;-57
2022/07/29 08:25:27;;;;;;;4.47;1.48;;;27.60;57.90;;;;;;4953751;28;20023;-57
2022/07/29 08:27:52;;;;;;;6.13;1.88;;;27.40;58.30;;;;;;4953171;28;20397;-55
2022/07/29 08:30:18;;;;;;;9.70;2.17;;;27.30;57.80;;;;;;4970796;28;20441;-58
2022/07/29 08:32:44;;;;;;;3.60;1.83;;;27.10;58.30;;;;;;4971790;28;20129;-58
2022/07/29 08:35:09;;;;;;;10.73;1.70;;;26.60;58.90;;;;;;4970115;28;20477;-52
2022/07/29 08:37:35;;;;;;;3.33;1.48;;;26.30;57.60;;;;;;4969877;28;20030;-57
2022/07/29 08:40:00;;;;;;;9.20;2.00;;;26.20;58.10;;;;;;4971620;28;20014;-57
2022/07/29 08:42:26;;;;;;;6.38;2.25;;;26.00;58.50;;;;;;4969426;28;20110;-56
2022/07/29 08:44:53;;;;;;;6.32;2.08;;;25.90;58.60;;;;;;4970296;28;20106;-57
2022/07/29 08:47:19;;;;;;;4.85;1.88;;;26.20;58.30;;;;;;4968825;28;20559;-57
2022/07/29 08:49:46;;;;;;;7.85;1.80;;;26.30;58.90;;;;;;4969743;28;20042;-57
2022/07/29 08:52:13;;;;;;;3.85;1.65;;;26.60;58.30;;;;;;4952836;28;20031;-58
2022/07/29 08:54:42;;;;;;;8.00;1.85;;;26.70;58.30;;;;;;4933969;28;20550;-57
2022/07/29 08:57:12;;;;;;;8.60;1.95;;;27.00;57.60;;;;;;4967264;28;20074;-56
2022/07/29 08:59:42;;;;;;;7.07;1.67;;;27.00;56.60;;;;;;4967243;28;20393;-58
2022/07/29 09:02:22;;;;;;;2.22;1.63;;;27.10;58.00;;;;;;4970349;28;20038;-57
2022/07/29 09:04:49;;;;;;;4.75;1.80;;;27.40;57.00;;;;;;4968568;28;20035;-58
2022/07/29 09:07:16;;;;;;;5.05;1.52;;;27.40;57.70;;;;;;4969525;28;20019;-54
2022/07/29 09:09:43;;;;;;;6.32;1.70;;;27.60;57.60;;;;;;4970497;28;20034;-58
2022/07/29 09:12:11;;;;;;;8.90;1.60;;;27.80;55.30;;;;;;4968974;28;20488;-57
2022/07/29 09:14:40;;;;;;;6.32;1.95;;;28.20;55.60;;;;;;4969385;28;20484;-55
2022/07/29 09:17:06;;;;;;;7.22;2.28;;;27.90;55.80;;;;;;4968842;28;20107;-55
2022/07/29 09:19:34;;;;;;;7.53;1.80;;;27.90;56.90;;;;;;4969973;28;20023;-57
2022/07/29 09:22:02;;;;;;;10.18;2.00;;;28.30;55.70;;;;;;4969386;28;20030;-57
2022/07/29 09:24:46;;;;;;;6.22;1.90;;;28.80;55.70;;;;;;4970449;28;20154;-57
2022/07/29 09:27:25;;;;;;;5.03;2.17;;;29.60;55.30;;;;;;4966263;28;20101;-55
2022/07/29 09:29:57;;;;;;;2.58;1.40;;;30.20;53.60;;;;;;4970225;28;20030;-59
2022/07/29 09:32:23;;;;;;;7.70;1.90;;;31.60;52.10;;;;;;4967582;28;20641;-57
2022/07/29 09:34:49;;;;;;;8.00;1.88;;;32.00;51.90;;;;;;4969155;28;20042;-59
2022/07/29 09:37:28;;;;;;;6.22;1.88;;;33.00;49.00;;;;;;4968071;28;20055;-57
2022/07/29 09:39:54;;;;;;;7.35;1.88;;;32.60;49.60;;;;;;4969883;28;20054;-59
2022/07/29 09:42:32;;;;;;;6.47;2.05;;;32.30;49.70;;;;;;4970126;28;20015;-59
2022/07/29 09:44:57;;;;;;;4.18;1.63;;;31.90;49.40;;;;;;4968589;28;20070;-55
2022/07/29 09:47:41;;;;;;;8.40;1.90;;;32.10;51.00;;;;;;4970646;28;20058;-57
2022/07/29 09:50:07;;;;;;;3.38;1.80;;;32.80;49.30;;;;;;4968682;28;20382;-55
2022/07/29 09:52:48;;;;;;;12.40;2.03;;;32.80;50.30;;;;;;4969545;28;20031;-57
2022/07/29 09:55:14;;;;;;;6.00;2.28;;;33.10;50.40;;;;;;4969324;28;20397;-57
2022/07/29 09:57:40;;;;;;;6.90;2.30;;;33.00;49.00;;;;;;4968753;28;20026;-59
2022/07/29 10:00:08;;;;;;;9.32;2.03;;;33.00;50.20;;;;;;4964788;28;20530;-56
2022/07/29 10:02:35;;;;;;;4.55;1.58;;;32.40;51.40;;;;;;4968068;28;20126;-59
2022/07/29 10:05:04;;;;;;;3.42;1.63;;;33.10;50.30;;;;;;4969015;28;20042;-59
2022/07/29 10:07:44;;;;;;;12.13;1.98;;;32.50;49.60;;;;;;4968697;28;20035;-57
2022/07/29 10:10:10;;;;;;;5.38;2.00;;;32.10;51.20;;;;;;4965314;28;20496;-56
2022/07/29 10:12:59;;;;;;;4.82;1.98;;;32.10;51.60;;;;;;4961599;28;20134;-57
2022/07/29 10:15:28;;;;;;;5.75;1.88;;;31.60;51.40;;;;;;4967285;28;20037;-57
2022/07/29 10:17:55;;;;;;;6.63;2.25;;;31.20;51.20;;;;;;4973156;28;20027;-56
2022/07/29 10:20:22;;;;;;;5.35;1.40;;;31.10;51.60;;;;;;4973592;28;20019;-56
2022/07/29 10:22:49;;;;;;;11.02;1.73;;;31.40;52.90;;;;;;4972591;28;20070;-55
2022/07/29 10:25:17;;;;;;;6.65;2.08;;;30.80;53.00;;;;;;4971293;28;20035;-54
2022/07/29 10:27:44;;;;;;;4.50;1.75;;;30.40;52.70;;;;;;4972103;28;20039;-56
2022/07/29 10:30:11;;;;;;;4.88;1.83;;;29.80;53.40;;;;;;4972780;28;20027;-57
2022/07/29 10:32:52;;;;;;;10.65;2.10;;;29.40;54.10;;;;;;4967179;28;20038;-56
2022/07/29 10:35:43;;;;;;;6.88;1.65;;;29.90;55.20;;;;;;4973205;28;20046;-57
2022/07/29 10:38:40;;;;;;;6.45;1.98;;;30.60;54.50;;;;;;4970923;28;20023;-58
2022/07/29 10:41:26;;;;;;;5.93;2.00;;;30.50;53.50;;;;;;4972818;28;20031;-56
2022/07/29 10:43:56;;;;;;;6.68;1.85;;;30.60;52.70;;;;;;4972912;28;20035;-56
2022/07/29 10:46:22;;;;;;;5.75;2.03;;;30.10;54.50;;;;;;4972095;28;20026;-57
2022/07/29 10:49:21;;;;;;;7.57;1.98;;;30.40;54.20;;;;;;4971833;28;20045;-57
2022/07/29 10:51:59;;;;;;;8.07;1.98;;;30.40;53.20;;;;;;4955832;28;20038;-56
2022/07/29 10:57:25;;;;;;;4.95;1.67;;;30.60;53.60;;;;;;4978401;28;20811;-56
2022/07/29 11:00:08;;;;;;;13.15;2.78;;;31.10;53.30;;;;;;4969078;28;20031;-57
2022/07/29 11:02:34;;;;;;;4.53;1.88;;;30.70;53.60;;;;;;4978260;28;20071;-55
2022/07/29 11:05:01;;;;;;;3.88;1.70;;;30.30;55.00;;;;;;4971285;28;20057;-56
2022/07/29 11:07:29;;;;;;;2.38;1.77;;;30.40;54.30;;;;;;4973091;28;20046;-55
2022/07/29 11:10:13;;;;;;;4.55;1.58;;;30.40;53.80;;;;;;4973349;28;20035;-54
2022/07/29 11:12:42;;;;;;;5.03;1.90;;;30.30;55.00;;;;;;4965435;28;20444;-55
2022/07/29 11:15:17;;;;;;;9.15;2.15;;;30.30;57.70;;;;;;4973401;28;20031;-55
2022/07/29 11:17:57;;;;;;;8.68;2.08;;;29.90;59.50;;;;;;4965944;28;20436;-56
2022/07/29 11:20:36;;;;;;;5.35;1.98;;;29.90;59.00;;;;;;4971909;28;20018;-54
2022/07/29 11:23:24;;;;;;;5.97;1.90;;;29.60;60.50;;;;;;4968769;28;20547;-59
2022/07/29 11:26:21;;;;;;;11.32;2.53;;;29.50;61.70;;;;;;4965592;28;20059;-54
2022/07/29 11:28:53;;;;;;;7.55;2.47;;;29.30;61.40;;;;;;4960431;28;20105;-58
2022/07/29 11:31:38;;;;;;;13.18;3.00;;;29.10;62.80;;;;;;4968971;28;20026;-53
2022/07/29 11:34:17;;;;;;;12.02;2.83;;;29.00;64.70;;;;;;4968673;28;20460;-57
2022/07/29 11:37:13;;;;;;;10.50;2.83;;;29.00;63.40;;;;;;4970561;28;20031;-56
2022/07/29 11:39:46;;;;;;;6.07;2.15;;;28.60;63.80;;;;;;4970425;28;20400;-58
2022/07/29 11:42:21;;;;;;;7.93;2.33;;;29.00;64.30;;;;;;4970335;28;20425;-56
2022/07/29 11:45:06;;;;;;;9.77;2.40;;;28.80;63.80;;;;;;4969765;28;20029;-57
2022/07/29 11:47:34;;;;;;;9.77;2.30;;;28.70;63.90;;;;;;4973064;28;20374;-54
2022/07/29 11:50:02;;;;;;;8.18;2.05;;;28.90;64.30;;;;;;4972255;28;20077;-55
2022/07/29 11:52:46;;;;;;;5.60;1.77;;;29.10;63.40;;;;;;4968016;28;20035;-53
2022/07/29 11:55:22;;;;;;;6.47;2.20;;;29.00;64.70;;;;;;4965174;28;20042;-54
2022/07/29 11:58:01;;;;;;;15.07;2.83;;;28.90;64.20;;;;;;4968552;28;20031;-57
2022/07/29 12:00:31;;;;;;;7.38;2.20;;;28.50;63.60;;;;;;4971080;28;20034;-57
2022/07/29 12:02:59;;;;;;;9.70;2.15;;;28.70;64.40;;;;;;4970136;28;20106;-55
2022/07/29 12:05:35;;;;;;;7.05;2.83;;;28.80;63.70;;;;;;4969623;28;20030;-57
2022/07/29 12:08:22;;;;;;;8.40;2.50;;;28.80;63.70;;;;;;4972915;28;20065;-59
2022/07/29 12:10:52;;;;;;;6.68;2.45;;;28.80;64.30;;;;;;4971680;28;20034;-56
2022/07/29 12:13:20;;;;;;;11.25;3.05;;;28.70;64.10;;;;;;4972614;28;20046;-57
2022/07/29 12:15:53;;;;;;;5.97;2.58;;;28.70;64.60;;;;;;4972583;28;20023;-59
2022/07/29 12:18:20;;;;;;;5.90;2.17;;;28.60;63.10;;;;;;4969806;28;20019;-58
2022/07/29 12:20:46;;;;;;;6.20;2.58;;;28.60;63.50;;;;;;4969969;28;20031;-55
2022/07/29 12:23:13;;;;;;;6.07;2.10;;;28.30;63.70;;;;;;4971791;28;20054;-53
2022/07/29 12:25:41;;;;;;;10.88;2.80;;;28.30;64.30;;;;;;4971133;28;20026;-58
2022/07/29 12:28:08;;;;;;;10.10;2.88;;;28.10;63.50;;;;;;4971866;28;20031;-55
2022/07/29 12:30:45;;;;;;;15.45;3.15;;;27.90;64.80;;;;;;4970736;28;20031;-59
2022/07/29 12:33:27;;;;;;;10.32;2.65;;;28.00;65.30;;;;;;4970224;28;20045;-56
2022/07/29 12:36:02;;;;;;;9.52;2.40;;;27.90;64.10;;;;;;4969997;28;20031;-59
2022/07/29 12:38:29;;;;;;;6.90;2.22;;;28.20;64.70;;;;;;4971034;28;20696;-59
2022/07/29 12:40:55;;;;;;;7.40;2.17;;;28.10;64.30;;;;;;4971534;28;20027;-59
2022/07/29 12:43:22;;;;;;;12.48;2.80;;;28.30;63.60;;;;;;4972013;28;20030;-58
2022/07/29 12:45:54;;;;;;;6.03;2.17;;;28.30;63.20;;;;;;4970783;28;20034;-58
2022/07/29 12:48:43;;;;;;;6.65;2.83;;;28.40;63.60;;;;;;4969958;28;20027;-59
2022/07/29 12:51:11;;;;;;;8.82;2.50;;;28.20;64.30;;;;;;4970313;28;20034;-57
2022/07/29 12:53:38;;;;;;;9.60;2.22;;;28.10;62.50;;;;;;4970756;28;20034;-58
2022/07/29 12:56:04;;;;;;;9.35;2.95;;;28.00;63.20;;;;;;4968631;28;20030;-59
2022/07/29 12:58:39;;;;;;;7.13;2.10;;;27.90;63.30;;;;;;4968105;28;20117;-56
2022/07/29 13:01:04;;;;;;;5.72;2.10;;;27.90;62.20;;;;;;4965154;28;20093;-59
2022/07/29 13:03:46;;;;;;;14.75;2.67;;;27.90;62.90;;;;;;4968640;28;20038;-58
2022/07/29 13:06:38;;;;;;;9.07;1.83;;;27.80;62.80;;;;;;4968528;28;20074;-58
2022/07/29 13:09:05;;;;;;;4.30;2.03;;;27.80;63.50;;;;;;4968758;28;20039;-54